M I D A S
Marine Information and Data Acquisition System
Tripno 361 of the Zeeleeuw from 2002-11-20 07:24:24 to 2002-11-20 17:15:09
Back to CruiseResearch ActivitiesStationsMapUnderway DataData graphs

EquipmentUnitsComment
TimeDGPSUTC
LatitudeDGPSDM.mWGS84
LongitudeDGPSDM.mWGS84
HeadingGyrodeg 
SOGDGPSknotsSpeed over ground
COGDGPSdegCourse over ground
DepthEcho soundermeters200 kHz
Missing or incorrect values are displayed as -999
Navigation data collected by the RV Zeeleeuw from 2002-11-20 07:24:24 to 2002-11-20 17:15:09
                                                                                    Next 1000 lines
Time Latitude Longitude Heading SOG COG Depth
2002-11-20 07:24:32 51°14.401 2°55.028 322.2 9.6 315.7 9
2002-11-20 07:24:38 51°14.412 2°55.009 321.3 9.6 314 9
2002-11-20 07:24:43 51°14.421 2°54.993 320.5 9.7 312.5 9.1
2002-11-20 07:24:48 51°14.43 2°54.977 320.2 9.8 311 8.9
2002-11-20 07:24:53 51°14.439 2°54.959 319.8 10 310.6 8.8
2002-11-20 07:24:58 51°14.449 2°54.941 320 10.6 310.7 8.8
2002-11-20 07:25:03 51°14.46 2°54.923 321.7 10.9 311.4 8.7
2002-11-20 07:25:08 51°14.471 2°54.906 324.3 11.2 314.1 8.6
2002-11-20 07:25:13 51°14.482 2°54.889 326.8 11.3 316 8.5
2002-11-20 07:25:18 51°14.494 2°54.872 328.8 11.5 317.7 8.6
2002-11-20 07:25:23 51°14.507 2°54.856 330.5 11.6 320.2 8.5
2002-11-20 07:25:28 51°14.52 2°54.84 331.7 11.8 321.6 8.5
2002-11-20 07:25:32 51°14.53 2°54.827 332.3 11.8 322.4 8.4
2002-11-20 07:25:38 51°14.546 2°54.808 333.2 11.9 323.3 8.4
2002-11-20 07:25:43 51°14.56 2°54.793 333.7 12 323.9 8.4
2002-11-20 07:25:48 51°14.574 2°54.777 334 12.1 324.4 8.4
2002-11-20 07:25:53 51°14.587 2°54.762 334 12.1 324.5 8.3
2002-11-20 07:25:58 51°14.601 2°54.746 333.5 12.1 324.3 8.3
2002-11-20 07:26:04 51°14.617 2°54.727 332.7 12.2 323.8 8.2
2002-11-20 07:26:08 51°14.628 2°54.714 332.2 12.2 322.9 8.2
2002-11-20 07:26:14 51°14.644 2°54.694 331.8 12.2 322.6 8.3
2002-11-20 07:26:18 51°14.655 2°54.681 331.7 12.2 322.5 8.2
2002-11-20 07:26:23 51°14.669 2°54.664 331.8 12.3 322.7 8.2
2002-11-20 07:26:28 51°14.682 2°54.648 332.2 12.3 322.9 8.3
2002-11-20 07:26:33 51°14.696 2°54.632 332.3 12.3 323.1 8.4
2002-11-20 07:26:38 51°14.71 2°54.616 332.7 12.3 323.7 8.4
2002-11-20 07:26:43 51°14.724 2°54.6 333.2 12.3 324.2 8.4
2002-11-20 07:26:48 51°14.738 2°54.584 333.3 12.3 324.6 8.4
2002-11-20 07:26:54 51°14.754 2°54.565 333 12.3 324.3 8.3
2002-11-20 07:26:58 51°14.765 2°54.552 332.7 12.3 323.6 8.3
2002-11-20 07:27:04 51°14.781 2°54.532 332.2 12.3 323.2 8.3
2002-11-20 07:27:08 51°14.793 2°54.519 331.7 12.3 323.1 8.4
2002-11-20 07:27:14 51°14.809 2°54.499 331.3 12.4 322.8 8.3
2002-11-20 07:27:18 51°14.82 2°54.486 331.3 12.3 322.7 8.2
2002-11-20 07:27:24 51°14.836 2°54.467 331.5 12.3 322.9 8.2
2002-11-20 07:27:28 51°14.847 2°54.454 333.2 12.3 324.3 8.3
2002-11-20 07:27:33 51°14.861 2°54.44 334.7 12.3 325.5 8.1
2002-11-20 07:27:38 51°14.875 2°54.425 335.8 12.2 326.7 8
2002-11-20 07:27:43 51°14.89 2°54.41 336.7 12.2 327.6 7.9
2002-11-20 07:27:48 51°14.904 2°54.396 337.2 12.1 328.4 7.8
2002-11-20 07:27:52 51°14.916 2°54.385 337.8 12.1 328.9 7.8
2002-11-20 07:27:58 51°14.933 2°54.369 337.8 12.1 329.1 7.6
2002-11-20 07:28:03 51°14.947 2°54.355 337.7 12 328.8 7.5
2002-11-20 07:28:08 51°14.961 2°54.341 337 12 328.4 7.4
2002-11-20 07:28:14 51°14.978 2°54.324 336.3 12 327.5 7.4
2002-11-20 07:28:18 51°14.989 2°54.312 335.5 12 326.7 7.3
2002-11-20 07:28:23 51°15.003 2°54.297 335 12 326.4 7.4
2002-11-20 07:28:28 51°15.017 2°54.282 334.5 12 326 7.3
2002-11-20 07:28:34 51°15.033 2°54.265 334.5 12 325.6 7.3
2002-11-20 07:28:38 51°15.044 2°54.253 335 12 325.9 7.3
2002-11-20 07:28:44 51°15.061 2°54.236 335.5 12 326.4 7.3
2002-11-20 07:28:48 51°15.072 2°54.224 336.2 12 327 7.4
2002-11-20 07:28:53 51°15.087 2°54.21 337.2 12.1 327.7 7.4
2002-11-20 07:28:58 51°15.101 2°54.196 337.7 12.1 328.5 7.5
2002-11-20 07:29:03 51°15.115 2°54.182 337.8 12.1 328.5 7.8
2002-11-20 07:29:08 51°15.129 2°54.167 337.5 12.1 328.1 7.7
2002-11-20 07:29:12 51°15.141 2°54.156 337 12.2 327.7 7.7
2002-11-20 07:29:18 51°15.158 2°54.138 336.3 12.2 327.1 7.8
2002-11-20 07:29:24 51°15.175 2°54.12 335.3 12.2 326.5 7.7
2002-11-20 07:29:28 51°15.186 2°54.108 334.8 12.3 325.7 7.9
2002-11-20 07:29:34 51°15.203 2°54.089 334.7 12.3 325.5 7.9
2002-11-20 07:29:38 51°15.214 2°54.077 334.7 12.3 325.4 7.9
2002-11-20 07:29:43 51°15.228 2°54.061 335 12.4 325.6 8.1
2002-11-20 07:29:48 51°15.243 2°54.046 335.5 12.4 326 8.1
2002-11-20 07:29:52 51°15.254 2°54.034 336 12.4 326.3 8.1
2002-11-20 07:29:58 51°15.271 2°54.016 336.7 12.3 327 8.1
2002-11-20 07:30:03 51°15.286 2°54.001 337.2 12.3 327.6 8.2
2002-11-20 07:30:08 51°15.3 2°53.987 337.2 12.3 327.6 8.3
2002-11-20 07:30:14 51°15.317 2°53.969 337 12.3 327.3 8.4
2002-11-20 07:30:18 51°15.328 2°53.956 336.2 12.3 326.2 8.5
2002-11-20 07:30:24 51°15.346 2°53.938 335.5 12.4 325.7 8.6
2002-11-20 07:30:28 51°15.357 2°53.925 335.2 12.4 325.6 8.5
2002-11-20 07:30:33 51°15.371 2°53.91 335.3 12.4 325.4 8.6
2002-11-20 07:30:38 51°15.385 2°53.894 335.5 12.4 325.7 8.7
2002-11-20 07:30:43 51°15.399 2°53.879 336 12.4 326 8.7
2002-11-20 07:30:48 51°15.414 2°53.864 336.3 12.4 326.4 8.8
2002-11-20 07:30:53 51°15.428 2°53.85 336.7 12.4 326.9 8.9
2002-11-20 07:30:58 51°15.442 2°53.835 336.8 12.3 327.1 8.9
2002-11-20 07:31:03 51°15.456 2°53.82 336.5 12.3 326.8 9
2002-11-20 07:31:08 51°15.471 2°53.804 335.8 12.3 326.2 8.9
2002-11-20 07:31:13 51°15.485 2°53.789 335.3 12.3 325.7 9.1
2002-11-20 07:31:18 51°15.499 2°53.772 334.8 12.4 324.9 9.2
2002-11-20 07:31:23 51°15.513 2°53.757 334.5 12.4 324.5 9.2
2002-11-20 07:31:28 51°15.527 2°53.741 334.7 12.4 324.6 9.3
2002-11-20 07:31:32 51°15.538 2°53.729 335.3 12.4 325.2 9.4
2002-11-20 07:31:38 51°15.555 2°53.71 335.8 12.4 325.8 9.5
2002-11-20 07:31:43 51°15.569 2°53.695 336.3 12.3 326 9.5
2002-11-20 07:31:48 51°15.583 2°53.68 336.8 12.3 326.3 9.6
2002-11-20 07:31:53 51°15.598 2°53.665 336.8 12.3 326.5 9.7
2002-11-20 07:31:58 51°15.612 2°53.65 336.3 12.3 326.3 9.7
2002-11-20 07:32:03 51°15.626 2°53.635 335.8 12.3 326 9.8
2002-11-20 07:32:08 51°15.64 2°53.619 335.5 12.3 325.7 9.9
2002-11-20 07:32:12 51°15.651 2°53.607 335.2 12.4 325.5 9.9
2002-11-20 07:32:18 51°15.668 2°53.588 335 12.4 325.5 10
2002-11-20 07:32:23 51°15.683 2°53.572 335 12.5 325.2 10
2002-11-20 07:32:28 51°15.697 2°53.556 335.2 12.6 325.4 10.1
2002-11-20 07:32:32 51°15.709 2°53.543 335.3 12.7 325.7 10.1
2002-11-20 07:32:38 51°15.726 2°53.524 335.7 12.9 325.9 10.2
2002-11-20 07:32:43 51°15.741 2°53.508 336 13 326 10.2
2002-11-20 07:32:48 51°15.757 2°53.492 336.3 13.2 326.4 10.3
2002-11-20 07:32:53 51°15.772 2°53.475 336.3 13.3 326.4 10.3
2002-11-20 07:32:58 51°15.787 2°53.459 336.2 13.3 326 10.3
2002-11-20 07:33:03 51°15.803 2°53.442 335.7 13.4 325.7 10.3
2002-11-20 07:33:08 51°15.819 2°53.425 335.2 13.5 325.7 10.4
2002-11-20 07:33:12 51°15.831 2°53.411 335.5 13.6 325.6 10.4
2002-11-20 07:33:18 51°15.85 2°53.391 336.7 13.7 326.7 10.5
2002-11-20 07:33:23 51°15.866 2°53.375 337.5 13.7 327.3 10.5
2002-11-20 07:33:28 51°15.883 2°53.36 338.3 13.7 328.5 10.6
2002-11-20 07:33:33 51°15.899 2°53.343 338.8 13.8 328.6 10.7
2002-11-20 07:33:38 51°15.915 2°53.328 338.8 13.8 328.8 10.7
2002-11-20 07:33:43 51°15.932 2°53.312 338.7 13.8 328.9 10.7
2002-11-20 07:33:48 51°15.948 2°53.296 339 13.8 328.7 10.7
2002-11-20 07:33:52 51°15.961 2°53.283 338.8 13.8 328.4 10.7
2002-11-20 07:33:58 51°15.981 2°53.264 338.5 13.8 328.4 10.8
2002-11-20 07:34:03 51°15.998 2°53.247 338.5 13.9 328.5 10.8
2002-11-20 07:34:08 51°16.014 2°53.231 338.3 13.9 328.2 10.9
2002-11-20 07:34:14 51°16.034 2°53.212 338.3 13.9 328.2 10.9
2002-11-20 07:34:18 51°16.047 2°53.199 338.8 13.9 329 10.9
2002-11-20 07:34:23 51°16.063 2°53.183 339.3 13.9 329.1 11
2002-11-20 07:34:28 51°16.08 2°53.168 339.2 13.9 329.1 11
2002-11-20 07:34:33 51°16.097 2°53.152 339 13.9 329.1 11
2002-11-20 07:34:38 51°16.113 2°53.136 338.7 13.9 328.8 11.1
2002-11-20 07:34:43 51°16.129 2°53.12 338.7 13.9 328.5 11.1
2002-11-20 07:34:48 51°16.146 2°53.104 338.8 13.9 328.8 11.1
2002-11-20 07:34:53 51°16.162 2°53.088 339 13.9 328.9 11.1
2002-11-20 07:34:58 51°16.179 2°53.072 339 13.8 328.8 11.2
2002-11-20 07:35:04 51°16.199 2°53.053 339 13.9 329.1 11.2
2002-11-20 07:35:08 51°16.212 2°53.041 338.8 14 329.3 11.2
2002-11-20 07:35:13 51°16.228 2°53.025 338.7 14 329.5 11.2
2002-11-20 07:35:18 51°16.245 2°53.009 339.7 13.9 329.7 11.2
2002-11-20 07:35:23 51°16.262 2°52.995 341.2 13.8 331.2 11.3
2002-11-20 07:35:28 51°16.278 2°52.98 341.8 13.8 332 11.2
2002-11-20 07:35:32 51°16.292 2°52.97 342.7 13.8 332.9 11.2
2002-11-20 07:35:38 51°16.313 2°52.953 343.5 13.8 333.9 11.2
2002-11-20 07:35:43 51°16.33 2°52.94 343.8 13.7 334.2 11.2
2002-11-20 07:35:48 51°16.347 2°52.927 343.7 13.7 334.5 11.2
2002-11-20 07:35:54 51°16.368 2°52.911 343.3 13.8 334.4 11.2
2002-11-20 07:35:58 51°16.381 2°52.901 343 13.7 334 11.1
2002-11-20 07:36:03 51°16.398 2°52.887 342.7 13.7 333.7 11.1
2002-11-20 07:36:08 51°16.416 2°52.874 342.7 13.8 333.9 11.1
2002-11-20 07:36:13 51°16.433 2°52.86 342.8 13.8 334.1 11.1
2002-11-20 07:36:18 51°16.449 2°52.848 343.2 13.7 334.4 11
2002-11-20 07:36:23 51°16.466 2°52.835 343.7 13.8 334.7 10.9
2002-11-20 07:36:28 51°16.483 2°52.822 343.7 13.7 334.9 10.8
2002-11-20 07:36:33 51°16.5 2°52.809 343.8 13.7 334.9 10.7
2002-11-20 07:36:38 51°16.517 2°52.796 343.7 13.6 334.8 10.6
2002-11-20 07:36:43 51°16.535 2°52.783 343.3 13.6 334.7 10.6
2002-11-20 07:36:48 51°16.552 2°52.77 343 13.6 334.2 10.4
2002-11-20 07:36:52 51°16.566 2°52.759 342.3 13.7 333.8 10.4
2002-11-20 07:36:58 51°16.586 2°52.743 341.8 13.7 333.4 10.4
2002-11-20 07:37:04 51°16.606 2°52.726 341.8 13.6 333.1 10.2
2002-11-20 07:37:08 51°16.619 2°52.716 342.5 13.6 333.4 10.1
2002-11-20 07:37:14 51°16.64 2°52.701 344.5 13.5 334.6 10.1
2002-11-20 07:37:18 51°16.654 2°52.693 345.8 13.4 337 9.9
2002-11-20 07:37:24 51°16.675 2°52.68 347.5 13.4 338.3 9.7
2002-11-20 07:37:28 51°16.689 2°52.673 349.2 13.3 340.3 9.6
2002-11-20 07:37:33 51°16.706 2°52.664 350 13.3 341.1 9.3
2002-11-20 07:37:38 51°16.723 2°52.655 350.8 13.2 342.3 9
2002-11-20 07:37:43 51°16.741 2°52.646 351.5 13.2 343 8.6
2002-11-20 07:37:48 51°16.758 2°52.638 352 13.1 343.6 8.5
2002-11-20 07:37:52 51°16.772 2°52.632 352.5 13 343.8 8.7
2002-11-20 07:37:58 51°16.792 2°52.622 352.7 12.8 343.9 8.8
2002-11-20 07:38:04 51°16.813 2°52.613 352.5 12.8 343.8 8.7
2002-11-20 07:38:08 51°16.826 2°52.607 352.3 12.9 343.8 8.5
2002-11-20 07:38:14 51°16.847 2°52.596 351.5 13 343 8.5
2002-11-20 07:38:18 51°16.86 2°52.589 351 13 342.3 8.4
2002-11-20 07:38:24 51°16.881 2°52.578 350.2 13 341.7 8.7
2002-11-20 07:38:28 51°16.895 2°52.57 349.8 12.9 341.2 8.6
2002-11-20 07:38:33 51°16.911 2°52.56 349.7 12.9 340.7 8.8
2002-11-20 07:38:38 51°16.928 2°52.551 349.8 12.9 340.8 8.9
2002-11-20 07:38:43 51°16.945 2°52.542 350.5 13.1 341.5 8.8
2002-11-20 07:38:48 51°16.962 2°52.533 351.2 13.2 342.3 8.6
2002-11-20 07:38:52 51°16.976 2°52.526 351.8 13.2 343 8.4
2002-11-20 07:38:58 51°16.997 2°52.517 352.8 13 343.8 8.4
2002-11-20 07:39:04 51°17.018 2°52.507 353 13 344.2 8.4
2002-11-20 07:39:08 51°17.031 2°52.5 352.7 12.9 343.9 8.3
2002-11-20 07:39:14 51°17.052 2°52.49 352 12.8 343.1 8.5
2002-11-20 07:39:18 51°17.065 2°52.483 351.2 12.9 342.1 8.5
2002-11-20 07:39:24 51°17.086 2°52.472 350.7 12.9 341.8 8.7
2002-11-20 07:39:28 51°17.1 2°52.464 349.7 13 340.5 8.8
2002-11-20 07:39:34 51°17.12 2°52.453 349.7 13 340.4 8.7
2002-11-20 07:39:38 51°17.134 2°52.445 349.7 13.1 340.6 8.6
2002-11-20 07:39:43 51°17.151 2°52.436 349.8 13.1 340.9 8.7
2002-11-20 07:39:48 51°17.168 2°52.426 350.2 13.1 341 8.8
2002-11-20 07:39:52 51°17.182 2°52.419 350.8 13.1 341.5 8.9
2002-11-20 07:39:58 51°17.202 2°52.409 351.2 13.2 342.2 8.8
2002-11-20 07:40:04 51°17.223 2°52.398 351.8 13.2 342.7 8.9
2002-11-20 07:40:08 51°17.237 2°52.392 352.3 13.1 342.9 9
2002-11-20 07:40:14 51°17.258 2°52.382 352.5 13.1 343 9.1
2002-11-20 07:40:18 51°17.272 2°52.374 351.8 13.2 342.7 9
2002-11-20 07:40:24 51°17.293 2°52.364 351.7 13.2 342.5 9.1
2002-11-20 07:40:28 51°17.307 2°52.356 350.7 13.2 341.7 9.2
2002-11-20 07:40:32 51°17.321 2°52.349 350.8 13.2 341.4 9.1
2002-11-20 07:40:39 51°17.345 2°52.336 350.5 13.2 341.4 9.2
2002-11-20 07:40:43 51°17.359 2°52.329 352.7 13.2 342.4 9.1
2002-11-20 07:40:48 51°17.378 2°52.322 355 13.2 345.5 9.3
2002-11-20 07:40:52 51°17.392 2°52.317 356.7 13.1 347 9.2
2002-11-20 07:40:58 51°17.414 2°52.311 359 13 348.8 9.2
2002-11-20 07:41:04 51°17.435 2°52.306 359.7 13 350.5 9.3
2002-11-20 07:41:08 51°17.45 2°52.303 0.2 13 351.5 9.3
2002-11-20 07:41:14 51°17.471 2°52.299 1.5 13 352.2 9.3
2002-11-20 07:41:18 51°17.486 2°52.296 2.7 13 353.9 9.3
2002-11-20 07:41:23 51°17.503 2°52.293 3.2 13 354.4 9.4
2002-11-20 07:41:28 51°17.521 2°52.291 3.8 13 355.2 9.4
2002-11-20 07:41:32 51°17.536 2°52.289 4.7 13 355.6 9.3
2002-11-20 07:41:39 51°17.561 2°52.287 5.5 12.9 356.8 9.2
2002-11-20 07:41:43 51°17.575 2°52.287 6 12.9 357.3 9.2
2002-11-20 07:41:48 51°17.593 2°52.286 6.5 13 358.1 9.3
2002-11-20 07:41:52 51°17.608 2°52.285 7 13 358.6 9.4
2002-11-20 07:41:58 51°17.629 2°52.285 7.7 12.9 359.2 9.2
2002-11-20 07:42:03 51°17.647 2°52.284 7.5 12.9 359.2 9
2002-11-20 07:42:08 51°17.664 2°52.284 7.3 12.9 359 9.4
2002-11-20 07:42:13 51°17.682 2°52.283 6.8 12.9 358.6 9.2
2002-11-20 07:42:18 51°17.7 2°52.281 6.2 12.9 357.7 9.1
2002-11-20 07:42:23 51°17.718 2°52.28 6.2 12.9 357.4 9.2
2002-11-20 07:42:28 51°17.736 2°52.279 6 12.8 357.3 9.3
2002-11-20 07:42:32 51°17.75 2°52.277 5.7 12.8 357.1 9.2
2002-11-20 07:42:38 51°17.771 2°52.276 5.8 12.9 357.1 9.2
2002-11-20 07:42:43 51°17.789 2°52.275 7 12.9 358.1 9.2
2002-11-20 07:42:48 51°17.807 2°52.275 8 13 359.3 9.2
2002-11-20 07:42:54 51°17.829 2°52.275 9 12.9 0.4 9.3
2002-11-20 07:42:58 51°17.843 2°52.276 9.8 12.9 1.3 9.2
2002-11-20 07:43:03 51°17.861 2°52.277 10.2 12.8 1.6 9.3
2002-11-20 07:43:08 51°17.879 2°52.278 10.5 12.8 2 9.3
2002-11-20 07:43:14 51°17.9 2°52.279 10.5 12.9 2.1 9.3
2002-11-20 07:43:18 51°17.914 2°52.28 10.5 12.9 2.2 9.4
2002-11-20 07:43:24 51°17.936 2°52.281 10.2 12.9 1.8 9.3
2002-11-20 07:43:28 51°17.95 2°52.281 9.7 12.9 1.4 9.4
2002-11-20 07:43:32 51°17.965 2°52.281 9.2 12.9 0.7 9.4
2002-11-20 07:43:39 51°17.989 2°52.282 9 13 0.5 9.5
2002-11-20 07:43:43 51°18.004 2°52.282 8.7 12.9 0.1 9.5
2002-11-20 07:43:48 51°18.022 2°52.282 8.8 12.9 0.2 9.5
2002-11-20 07:43:53 51°18.04 2°52.282 8.8 13 0.5 9.5
2002-11-20 07:43:58 51°18.057 2°52.283 10.2 12.9 1.6 9.5
2002-11-20 07:44:03 51°18.075 2°52.287 13.7 12.8 4.3 9.5
2002-11-20 07:44:08 51°18.093 2°52.292 17.8 12.8 9.5 9.6
2002-11-20 07:44:12 51°18.106 2°52.298 22.5 12.8 13.5 9.6
2002-11-20 07:44:18 51°18.126 2°52.309 25.5 12.8 17.9 9.6
2002-11-20 07:44:23 51°18.142 2°52.319 27.7 12.8 19.9 9.7
2002-11-20 07:44:28 51°18.159 2°52.33 29.2 12.7 22.3 9.7
2002-11-20 07:44:32 51°18.172 2°52.339 30 12.7 23.1 9.7
2002-11-20 07:44:38 51°18.191 2°52.353 30.7 12.7 24.4 9.7
2002-11-20 07:44:43 51°18.207 2°52.366 33.2 12.8 25.6 9.8
2002-11-20 07:44:48 51°18.222 2°52.381 36.8 12.8 30.2 9.8
2002-11-20 07:44:54 51°18.238 2°52.401 40.8 12.7 33.7 9.8
2002-11-20 07:44:58 51°18.249 2°52.416 44.5 12.7 38.8 9.8
2002-11-20 07:45:03 51°18.262 2°52.434 46.8 12.7 40.9 9.9
2002-11-20 07:45:08 51°18.275 2°52.453 48.7 12.6 42.7 9.9
2002-11-20 07:45:12 51°18.285 2°52.469 49.7 12.6 44.6 9.9
2002-11-20 07:45:18 51°18.299 2°52.493 50.3 12.6 45.3 10
2002-11-20 07:45:23 51°18.312 2°52.513 51 12.6 46 10
2002-11-20 07:45:28 51°18.324 2°52.533 50.8 12.7 46.3 10
2002-11-20 07:45:34 51°18.338 2°52.558 51 12.8 46.1 10
2002-11-20 07:45:38 51°18.347 2°52.575 52.2 12.8 47.4 10.1
2002-11-20 07:45:44 51°18.361 2°52.599 52.5 12.7 47.7 10.1
2002-11-20 07:45:48 51°18.37 2°52.617 53.5 12.6 49.2 10.1
2002-11-20 07:45:54 51°18.384 2°52.642 54 12.6 49.6 10.1
2002-11-20 07:45:58 51°18.392 2°52.66 56.2 12.6 51.5 10
2002-11-20 07:46:04 51°18.404 2°52.688 58.3 12.6 53.4 10.1
2002-11-20 07:46:08 51°18.412 2°52.706 59.8 12.7 54.9 10.1
2002-11-20 07:46:14 51°18.423 2°52.735 60.8 12.7 56.8 10
2002-11-20 07:46:18 51°18.431 2°52.754 61.7 12.6 57.7 10.2
2002-11-20 07:46:24 51°18.442 2°52.782 62.2 12.6 58.2 10.2
2002-11-20 07:46:28 51°18.449 2°52.801 62.7 12.6 58.5 10.1
2002-11-20 07:46:34 51°18.46 2°52.83 62.8 12.7 59 10.2
2002-11-20 07:46:39 51°18.469 2°52.854 62.8 12.7 59.3 10.2
2002-11-20 07:46:43 51°18.477 2°52.874 63.3 12.7 59.6 10.2
2002-11-20 07:46:48 51°18.485 2°52.898 64 12.7 60.1 10.2
2002-11-20 07:46:54 51°18.495 2°52.928 64.2 12.7 60.6 10.2
2002-11-20 07:46:58 51°18.502 2°52.947 64.2 12.7 60.7 10.2
2002-11-20 07:47:03 51°18.511 2°52.972 63.8 12.7 60.3 10.2
2002-11-20 07:47:08 51°18.52 2°52.996 64.2 12.7 60.2 10.2
2002-11-20 07:47:14 51°18.531 2°53.025 64.2 12.7 60 10.3
2002-11-20 07:47:18 51°18.538 2°53.045 64 12.7 60.3 10.3
2002-11-20 07:47:24 51°18.548 2°53.075 64.2 12.7 60.3 10.3
2002-11-20 07:47:28 51°18.555 2°53.094 64.3 12.7 60.5 10.3
2002-11-20 07:47:32 51°18.562 2°53.114 64.2 12.7 60.4 10.4
2002-11-20 07:47:38 51°18.572 2°53.143 64.3 12.7 60.4 10.3
2002-11-20 07:47:43 51°18.581 2°53.168 64.3 12.7 60.4 10.3
2002-11-20 07:47:48 51°18.589 2°53.192 64 12.7 60.5 10.3
2002-11-20 07:47:52 51°18.597 2°53.212 64 12.7 60.3 10.3
2002-11-20 07:47:58 51°18.607 2°53.241 63.8 12.6 59.9 10.4
2002-11-20 07:48:03 51°18.616 2°53.265 63.5 12.6 59.5 10.4
2002-11-20 07:48:08 51°18.625 2°53.289 63.5 12.6 59.3 10.4
2002-11-20 07:48:12 51°18.633 2°53.307 63.2 12.6 58.9 10.3
2002-11-20 07:48:19 51°18.645 2°53.341 63.2 12.6 58.8 10.4
2002-11-20 07:48:23 51°18.653 2°53.36 63.3 12.6 58.6 10.4
2002-11-20 07:48:28 51°18.661 2°53.384 63.5 12.6 59 10.4
2002-11-20 07:48:34 51°18.672 2°53.413 64 12.6 59.4 10.4
2002-11-20 07:48:38 51°18.679 2°53.432 63.8 12.6 59.5 10.4
2002-11-20 07:48:44 51°18.689 2°53.461 64 12.6 59.5 10.4
2002-11-20 07:48:48 51°18.696 2°53.48 64.2 12.6 59.6 10.4
2002-11-20 07:48:54 51°18.706 2°53.509 64.8 12.6 60 10.4
2002-11-20 07:48:58 51°18.713 2°53.529 66 12.6 61.6 10.4
2002-11-20 07:49:04 51°18.722 2°53.559 66.5 12.6 62.6 10.4
2002-11-20 07:49:08 51°18.729 2°53.579 67.5 12.6 62.9 10.4
2002-11-20 07:49:14 51°18.737 2°53.609 68 12.6 64.2 10.5
2002-11-20 07:49:18 51°18.743 2°53.629 68.3 12.6 64.6 10.5
2002-11-20 07:49:24 51°18.752 2°53.659 68.2 12.6 64.4 10.4
2002-11-20 07:49:28 51°18.758 2°53.679 68 12.5 64.3 10.5
2002-11-20 07:49:34 51°18.768 2°53.708 67.8 12.5 64.2 10.5
2002-11-20 07:49:38 51°18.774 2°53.728 67.7 12.6 63.5 10.5
2002-11-20 07:49:43 51°18.782 2°53.753 67.7 12.6 63.7 10.5
2002-11-20 07:49:48 51°18.79 2°53.778 67.5 12.6 63.1 10.5
2002-11-20 07:49:54 51°18.799 2°53.807 67.8 12.6 63.3 10.5
2002-11-20 07:49:58 51°18.805 2°53.828 68.2 12.5 64.1 10.5
2002-11-20 07:50:04 51°18.814 2°53.857 68.3 12.6 64.3 10.5
2002-11-20 07:50:08 51°18.82 2°53.877 68.3 12.6 64.3 10.4
2002-11-20 07:50:14 51°18.829 2°53.907 68 12.5 64.1 10.5
2002-11-20 07:50:18 51°18.835 2°53.926 68 12.5 63.8 10.5
2002-11-20 07:50:24 51°18.845 2°53.956 67.8 12.5 63.5 10.5
2002-11-20 07:50:28 51°18.851 2°53.976 68 12.5 63.6 10.5
2002-11-20 07:50:34 51°18.86 2°54.006 67.8 12.5 63.4 10.5
2002-11-20 07:50:38 51°18.866 2°54.026 68 12.5 63.5 10.5
2002-11-20 07:50:43 51°18.874 2°54.05 67.8 12.5 63.4 10.5
2002-11-20 07:50:48 51°18.882 2°54.075 67.8 12.5 63.5 10.5
2002-11-20 07:50:53 51°18.889 2°54.1 68 12.5 63.5 10.5
2002-11-20 07:50:58 51°18.897 2°54.125 67.8 12.5 63.7 10.5
2002-11-20 07:51:03 51°18.904 2°54.149 68.2 12.5 63.9 10.6
2002-11-20 07:51:08 51°18.912 2°54.174 67.7 12.5 63.7 10.5
2002-11-20 07:51:12 51°18.918 2°54.194 67.8 12.5 63.5 10.5
2002-11-20 07:51:18 51°18.928 2°54.223 67.8 12.5 63.3 10.5
2002-11-20 07:51:23 51°18.936 2°54.248 67.7 12.5 63.3 10.5
2002-11-20 07:51:28 51°18.943 2°54.272 67.7 12.4 63.3 10.6
2002-11-20 07:51:34 51°18.952 2°54.302 67.8 12.5 63.5 10.6
2002-11-20 07:51:38 51°18.959 2°54.322 68 12.5 63.7 10.6
2002-11-20 07:51:43 51°18.966 2°54.347 68 12.5 63.8 10.2
2002-11-20 07:51:48 51°18.974 2°54.371 68.3 12.5 63.8 10.6
2002-11-20 07:51:54 51°18.983 2°54.4 68.3 12.4 63.8 10.6
2002-11-20 07:51:58 51°18.989 2°54.42 68.2 12.4 64 10.6
2002-11-20 07:52:04 51°18.998 2°54.45 68.3 12.4 63.7 10.6
2002-11-20 07:52:08 51°19.004 2°54.47 68.3 12.5 63.8 10.7
2002-11-20 07:52:14 51°19.013 2°54.499 67.8 12.5 63.4 10.6
2002-11-20 07:52:18 51°19.02 2°54.519 67.8 12.5 63 10.6
2002-11-20 07:52:24 51°19.029 2°54.548 67.5 12.4 62.9 10.6
2002-11-20 07:52:28 51°19.035 2°54.567 67.7 12.4 63 10.6
2002-11-20 07:52:34 51°19.044 2°54.597 68 12.5 63.4 10.5
2002-11-20 07:52:38 51°19.05 2°54.616 68.2 12.4 63.4 10.6
2002-11-20 07:52:43 51°19.057 2°54.641 68.3 12.4 63.7 10.6
2002-11-20 07:52:48 51°19.065 2°54.666 68 12.4 63.7 10.6
2002-11-20 07:52:53 51°19.073 2°54.69 68.2 12.4 63.8 10.6
2002-11-20 07:52:58 51°19.08 2°54.714 67.7 12.4 63.3 10.6
2002-11-20 07:53:04 51°19.089 2°54.744 67.7 12.4 63.2 10.7
2002-11-20 07:53:08 51°19.096 2°54.763 67.8 12.4 63.3 10.6
2002-11-20 07:53:14 51°19.105 2°54.792 67.8 12.4 63.3 10.6
2002-11-20 07:53:18 51°19.111 2°54.812 67.8 12.4 63.3 10.6
2002-11-20 07:53:24 51°19.12 2°54.842 67.8 12.4 63.4 10.6
2002-11-20 07:53:28 51°19.126 2°54.861 68 12.4 63.4 10.6
2002-11-20 07:53:34 51°19.136 2°54.891 67.7 12.4 63.1 10.6
2002-11-20 07:53:38 51°19.142 2°54.91 67.7 12.5 62.9 10.4
2002-11-20 07:53:43 51°19.149 2°54.935 67.7 12.4 62.8 10.6
2002-11-20 07:53:48 51°19.157 2°54.959 67.5 12.4 63 10.6
2002-11-20 07:53:53 51°19.165 2°54.984 68 12.4 63.4 10.6
2002-11-20 07:53:58 51°19.172 2°55.008 68.3 12.4 63.6 10.7
2002-11-20 07:54:04 51°19.181 2°55.038 68.2 12.4 63.6 10.6
2002-11-20 07:54:08 51°19.188 2°55.057 68 12.4 63.7 10.6
2002-11-20 07:54:12 51°19.194 2°55.077 68 12.4 64 10.7
2002-11-20 07:54:18 51°19.203 2°55.106 68 12.4 63.6 10.6
2002-11-20 07:54:23 51°19.211 2°55.131 67.7 12.4 63.4 10.6
2002-11-20 07:54:28 51°19.218 2°55.155 67.7 12.4 63 10.6
2002-11-20 07:54:34 51°19.228 2°55.185 67.5 12.4 62.9 10.7
2002-11-20 07:54:38 51°19.234 2°55.204 67.5 12.4 62.8 10.6
2002-11-20 07:54:44 51°19.244 2°55.233 67.7 12.3 62.8 10.6
2002-11-20 07:54:48 51°19.25 2°55.253 67.8 12.3 62.9 10.6
2002-11-20 07:54:54 51°19.259 2°55.282 67.8 12.3 62.8 10.6
2002-11-20 07:54:58 51°19.265 2°55.302 67.5 12.4 62.9 10.6
2002-11-20 07:55:04 51°19.275 2°55.331 67.3 12.4 63 10.6
2002-11-20 07:55:08 51°19.281 2°55.35 67.7 12.3 62.7 10.6
2002-11-20 07:55:14 51°19.29 2°55.38 67.7 12.3 62.9 10.6
2002-11-20 07:55:18 51°19.296 2°55.4 67.3 12.4 63.1 10.6
2002-11-20 07:55:23 51°19.304 2°55.424 67.3 12.4 62.9 10.6
2002-11-20 07:55:28 51°19.312 2°55.448 67.3 12.4 62.7 10.6
2002-11-20 07:55:34 51°19.322 2°55.478 67.3 12.4 62.4 10.6
2002-11-20 07:55:39 51°19.329 2°55.502 67.5 12.4 62.8 10.6
2002-11-20 07:55:43 51°19.336 2°55.522 67.8 12.4 63.2 10.5
2002-11-20 07:55:48 51°19.343 2°55.547 68.2 12.4 63.6 10.6
2002-11-20 07:55:54 51°19.353 2°55.576 67.8 12.4 63.5 10.6
2002-11-20 07:55:58 51°19.359 2°55.596 68.2 12.4 63.5 10.6
2002-11-20 07:56:04 51°19.368 2°55.625 68.2 12.3 63.5 10.6
2002-11-20 07:56:08 51°19.374 2°55.645 68 12.3 63.3 10.6
2002-11-20 07:56:14 51°19.384 2°55.674 67.7 12.3 62.9 10.5
2002-11-20 07:56:18 51°19.39 2°55.694 67.7 12.4 62.9 10.6
2002-11-20 07:56:24 51°19.399 2°55.724 67.5 12.4 62.7 10.6
2002-11-20 07:56:28 51°19.405 2°55.743 67.8 12.4 63 10.5
2002-11-20 07:56:34 51°19.415 2°55.773 67.7 12.4 62.9 10.6
2002-11-20 07:56:38 51°19.421 2°55.792 67.7 12.4 63 10.6
2002-11-20 07:56:43 51°19.429 2°55.817 68 12.4 63.1 10.6
2002-11-20 07:56:48 51°19.436 2°55.841 68.3 12.4 63.7 10.6
2002-11-20 07:56:53 51°19.444 2°55.866 68.3 12.4 64 10.6
2002-11-20 07:56:58 51°19.452 2°55.89 68.3 12.4 63.8 10.5
2002-11-20 07:57:03 51°19.46 2°55.915 67.8 12.4 63.3 10.5
2002-11-20 07:57:08 51°19.467 2°55.94 67.5 12.4 63 10.5
2002-11-20 07:57:12 51°19.473 2°55.959 67.7 12.4 62.9 10.5
2002-11-20 07:57:18 51°19.482 2°55.988 68 12.3 63.2 10.5
2002-11-20 07:57:24 51°19.491 2°56.017 68.5 12.3 63.4 10.5
2002-11-20 07:57:28 51°19.497 2°56.037 68.2 12.4 63.6 10.5
2002-11-20 07:57:34 51°19.507 2°56.066 68.2 12.4 63.3 10.5
2002-11-20 07:57:38 51°19.513 2°56.086 67.8 12.3 63.1 10.5
2002-11-20 07:57:43 51°19.521 2°56.11 68 12.3 63.2 10.5
2002-11-20 07:57:48 51°19.529 2°56.135 67.8 12.4 63.3 10.5
2002-11-20 07:57:53 51°19.536 2°56.159 67.7 12.4 63.3 10.5
2002-11-20 07:57:58 51°19.544 2°56.183 67.7 12.4 63 10.5
2002-11-20 07:58:03 51°19.552 2°56.208 67.5 12.4 62.8 10.5
2002-11-20 07:58:08 51°19.56 2°56.232 67.3 12.3 62.8 10.5
2002-11-20 07:58:12 51°19.566 2°56.251 67.5 12.3 62.5 10.5
2002-11-20 07:58:19 51°19.577 2°56.285 67.7 12.3 63 10.4
2002-11-20 07:58:24 51°19.585 2°56.31 67.5 12.3 63 10.5
2002-11-20 07:58:28 51°19.591 2°56.329 67.7 12.4 63.5 10.4
2002-11-20 07:58:34 51°19.6 2°56.358 67.3 12.4 63.1 10.4
2002-11-20 07:58:38 51°19.606 2°56.378 67.3 12.3 62.9 10.5
2002-11-20 07:58:43 51°19.614 2°56.402 67.7 12.3 62.9 10.4
2002-11-20 07:58:48 51°19.622 2°56.426 67.5 12.3 62.7 10.4
2002-11-20 07:58:53 51°19.63 2°56.45 67.3 12.3 62.7 10.4
2002-11-20 07:58:58 51°19.638 2°56.474 67.3 12.3 62.5 10.4
2002-11-20 07:59:04 51°19.647 2°56.504 67.3 12.3 62.5 10.4
2002-11-20 07:59:08 51°19.653 2°56.523 67.7 12.3 62.8 10.4
2002-11-20 07:59:12 51°19.66 2°56.542 67.7 12.3 63 10.4
2002-11-20 07:59:18 51°19.669 2°56.572 67.8 12.4 63.2 10.4
2002-11-20 07:59:24 51°19.678 2°56.601 67.5 12.4 62.9 10.4
2002-11-20 07:59:28 51°19.684 2°56.62 67.5 12.3 62.9 10.4
2002-11-20 07:59:32 51°19.691 2°56.64 67.2 12.3 62.5 10.4
2002-11-20 07:59:38 51°19.7 2°56.669 67.2 12.3 62.6 10.4
2002-11-20 07:59:43 51°19.708 2°56.693 67.3 12.3 62.5 10.4
2002-11-20 07:59:48 51°19.716 2°56.717 67.5 12.4 62.6 10.4
2002-11-20 07:59:53 51°19.723 2°56.741 68 12.4 62.9 10.4
2002-11-20 07:59:58 51°19.731 2°56.766 68 12.4 63.5 10.4
2002-11-20 08:00:03 51°19.738 2°56.79 68.2 12.4 63.5 10.3
2002-11-20 08:00:08 51°19.746 2°56.814 68 12.3 63.3 10.3
2002-11-20 08:00:12 51°19.752 2°56.834 67.8 12.3 63 10.3
2002-11-20 08:00:18 51°19.762 2°56.863 67.5 12.3 62.8 10.3
2002-11-20 08:00:24 51°19.771 2°56.892 67.8 12.4 62.9 10.2
2002-11-20 08:00:28 51°19.777 2°56.912 67.5 12.4 62.8 10.4
2002-11-20 08:00:34 51°19.786 2°56.941 67.3 12.4 63.1 10.3
2002-11-20 08:00:38 51°19.792 2°56.961 67.7 12.4 63.3 10.3
2002-11-20 08:00:43 51°19.8 2°56.985 67.8 12.4 63.6 10.3
2002-11-20 08:00:48 51°19.808 2°57.009 68 12.4 63.1 10.3
2002-11-20 08:00:53 51°19.815 2°57.033 68 12.4 63.2 10.3
2002-11-20 08:00:58 51°19.823 2°57.058 67.3 12.4 62.9 10.3
2002-11-20 08:01:04 51°19.833 2°57.087 67.7 12.3 63 10.3
2002-11-20 08:01:08 51°19.839 2°57.106 67.5 12.4 62.7 10.3
2002-11-20 08:01:14 51°19.848 2°57.135 67.3 12.4 62.6 10.3
2002-11-20 08:01:18 51°19.855 2°57.155 67.2 12.4 62.4 10.3
2002-11-20 08:01:23 51°19.863 2°57.179 67.7 12.4 62.6 10.2
2002-11-20 08:01:28 51°19.871 2°57.203 67.5 12.4 62.4 10.3
2002-11-20 08:01:32 51°19.877 2°57.223 67.7 12.4 62.7 10.3
2002-11-20 08:01:38 51°19.886 2°57.252 67.7 12.4 62.8 10.3
2002-11-20 08:01:43 51°19.894 2°57.277 67.7 12.4 63 10.3
2002-11-20 08:01:48 51°19.902 2°57.301 67.8 12.4 63.1 10.3
2002-11-20 08:01:52 51°19.908 2°57.321 67.5 12.5 62.6 10.3
2002-11-20 08:01:58 51°19.918 2°57.35 67.3 12.5 62.3 10.3
2002-11-20 08:02:03 51°19.926 2°57.375 67.8 12.4 62.9 10.3
2002-11-20 08:02:08 51°19.934 2°57.399 67.8 12.4 62.9 10.3
2002-11-20 08:02:13 51°19.941 2°57.424 67.8 12.5 63.3 10.3
2002-11-20 08:02:18 51°19.949 2°57.449 68.3 12.5 63.6 10.3
2002-11-20 08:02:24 51°19.958 2°57.478 68.2 12.5 63.6 10.3
2002-11-20 08:02:28 51°19.964 2°57.498 68 12.4 63.3 10.2
2002-11-20 08:02:32 51°19.97 2°57.518 67.7 12.4 63.1 10.3
2002-11-20 08:02:39 51°19.982 2°57.551 67.5 12.4 62.6 10.2
2002-11-20 08:02:43 51°19.988 2°57.571 67.5 12.4 62.4 10.3
2002-11-20 08:02:48 51°19.995 2°57.596 67.3 12.4 62.7 10.3
2002-11-20 08:02:53 51°20.004 2°57.62 67.3 12.4 62.8 10.3
2002-11-20 08:02:58 51°20.012 2°57.644 67.3 12.4 62.6 10.3
2002-11-20 08:03:03 51°20.019 2°57.669 67.5 12.5 62.8 10.3
2002-11-20 08:03:08 51°20.028 2°57.693 67.7 12.5 62.8 10.3
2002-11-20 08:03:12 51°20.034 2°57.713 68.2 12.5 63.1 10.2
2002-11-20 08:03:19 51°20.044 2°57.747 68.2 12.4 63.2 10.2
2002-11-20 08:03:23 51°20.051 2°57.767 68.2 12.4 63.2 10.3
2002-11-20 08:03:28 51°20.058 2°57.791 67.8 12.4 63.1 10.3
2002-11-20 08:03:32 51°20.065 2°57.811 67.7 12.4 62.8 10.3
2002-11-20 08:03:38 51°20.074 2°57.84 67.5 12.4 62.8 10.3
2002-11-20 08:03:43 51°20.082 2°57.865 67.7 12.4 63 10.2
2002-11-20 08:03:48 51°20.089 2°57.89 67.7 12.4 63 10.3
2002-11-20 08:03:52 51°20.096 2°57.909 67.5 12.4 62.9 10.3
2002-11-20 08:03:59 51°20.107 2°57.943 67.7 12.4 62.9 10.3
2002-11-20 08:04:03 51°20.113 2°57.962 67.2 12.4 62.7 10.2
2002-11-20 08:04:08 51°20.121 2°57.987 67.3 12.4 62.2 10.2
2002-11-20 08:04:14 51°20.131 2°58.016 67.2 12.4 62.3 10.2
2002-11-20 08:04:18 51°20.137 2°58.035 67 12.5 62.1 10.2
2002-11-20 08:04:24 51°20.146 2°58.065 67.7 12.4 62.6 10.2
2002-11-20 08:04:28 51°20.153 2°58.084 67.5 12.4 62.8 10.2
2002-11-20 08:04:34 51°20.162 2°58.113 68 12.4 63.2 10.2
2002-11-20 08:04:38 51°20.168 2°58.133 67.7 12.4 63.1 10.2
2002-11-20 08:04:43 51°20.176 2°58.157 67.7 12.4 63 10.2
2002-11-20 08:04:48 51°20.184 2°58.182 67.5 12.4 62.6 10.2
2002-11-20 08:04:54 51°20.193 2°58.211 67.8 12.4 63 10.2
2002-11-20 08:04:59 51°20.201 2°58.235 67.5 12.4 62.8 10.3
2002-11-20 08:05:03 51°20.207 2°58.255 68 12.4 63 10.2
2002-11-20 08:05:08 51°20.215 2°58.279 67.8 12.4 62.8 10.2
2002-11-20 08:05:12 51°20.222 2°58.298 68 12.4 62.9 10.2
2002-11-20 08:05:18 51°20.231 2°58.328 68.2 12.4 63 10.3
2002-11-20 08:05:23 51°20.238 2°58.352 68.7 12.4 63.7 10.2
2002-11-20 08:05:28 51°20.246 2°58.377 68.7 12.4 63.6 10.2
2002-11-20 08:05:32 51°20.252 2°58.396 68.3 12.4 63.7 10.2
2002-11-20 08:05:38 51°20.262 2°58.425 67.7 12.4 62.9 10.2
2002-11-20 08:05:44 51°20.271 2°58.454 67.2 12.4 62.3 10.2
2002-11-20 08:05:48 51°20.277 2°58.474 67.3 12.3 61.9 10.3
2002-11-20 08:05:54 51°20.287 2°58.503 67.5 12.3 62.4 10.3
2002-11-20 08:05:58 51°20.293 2°58.522 68 12.3 63.2 10.2
2002-11-20 08:06:04 51°20.303 2°58.551 67.8 12.3 63 10.2
2002-11-20 08:06:08 51°20.309 2°58.571 67.5 12.3 62.5 10.2
2002-11-20 08:06:13 51°20.317 2°58.595 67.3 12.3 62.2 10.2
2002-11-20 08:06:18 51°20.325 2°58.619 67.5 12.3 62.3 10.2
2002-11-20 08:06:24 51°20.334 2°58.648 67.3 12.3 62 10.1
2002-11-20 08:06:28 51°20.34 2°58.667 67.5 12.3 62.3 10.2
2002-11-20 08:06:32 51°20.347 2°58.686 67.2 12.3 62.1 10.2
2002-11-20 08:06:39 51°20.358 2°58.72 67.7 12.3 62.7 10.2
2002-11-20 08:06:44 51°20.365 2°58.744 68 12.3 62.6 10.2
2002-11-20 08:06:48 51°20.372 2°58.764 67.7 12.3 62.6 10.2
2002-11-20 08:06:52 51°20.378 2°58.783 67.7 12.2 62.4 10.2
2002-11-20 08:06:58 51°20.388 2°58.812 67.7 12.3 62.1 10.2
2002-11-20 08:07:03 51°20.396 2°58.836 67.7 12.3 62.1 10.2
2002-11-20 08:07:08 51°20.403 2°58.86 67.5 12.3 62.1 10.2
2002-11-20 08:07:14 51°20.413 2°58.889 67.7 12.3 62.4 10.2
2002-11-20 08:07:18 51°20.419 2°58.908 67.3 12.3 62.2 10.2
2002-11-20 08:07:24 51°20.429 2°58.936 67.5 12.2 62.3 10.2
2002-11-20 08:07:28 51°20.435 2°58.956 67.5 12.2 62.1 10.2
2002-11-20 08:07:32 51°20.441 2°58.975 67.3 12.2 62 10.2
2002-11-20 08:07:38 51°20.451 2°59.003 67.2 12.2 62.1 10.2
2002-11-20 08:07:43 51°20.459 2°59.027 67.3 12.2 62.2 10.2
2002-11-20 08:07:48 51°20.467 2°59.051 67.7 12.3 62.3 10.2
2002-11-20 08:07:52 51°20.473 2°59.07 68 12.3 62.6 10.2
2002-11-20 08:07:58 51°20.482 2°59.099 68.3 12.3 62.7 10.2
2002-11-20 08:08:04 51°20.491 2°59.129 68.3 12.2 63.1 10.2
2002-11-20 08:08:08 51°20.497 2°59.148 68.8 12.2 63.6 10.2
2002-11-20 08:08:13 51°20.504 2°59.172 69.3 12.2 64.5 10.1
2002-11-20 08:08:18 51°20.512 2°59.196 69.8 12.2 64.7 10.2
2002-11-20 08:08:24 51°20.52 2°59.226 70.2 12.2 65.2 10.2
2002-11-20 08:08:28 51°20.526 2°59.245 70 12.2 64.7 10.2
2002-11-20 08:08:34 51°20.535 2°59.275 69.8 12.2 64.6 10.2
2002-11-20 08:08:38 51°20.541 2°59.294 69.5 12.2 64.2 10.2
2002-11-20 08:08:43 51°20.548 2°59.318 69.2 12.2 63.6 10.1
2002-11-20 08:08:48 51°20.556 2°59.343 69.3 12.2 63.8 10.2
2002-11-20 08:08:52 51°20.561 2°59.362 70 12.2 64.6 10.1
2002-11-20 08:08:58 51°20.57 2°59.391 70.3 12.2 64.9 10.2
2002-11-20 08:09:03 51°20.577 2°59.416 70.7 12.2 65.1 10.2
2002-11-20 08:09:08 51°20.584 2°59.441 70.7 12.2 65.3 10.1
2002-11-20 08:09:12 51°20.59 2°59.46 70.3 12.2 64.8 10.1
2002-11-20 08:09:19 51°20.6 2°59.495 69.7 12.3 64.4 10.2
2002-11-20 08:09:24 51°20.607 2°59.519 69.8 12.3 64.7 10.2
2002-11-20 08:09:28 51°20.613 2°59.538 69.8 12.2 64.6 10.2
2002-11-20 08:09:34 51°20.622 2°59.568 69.8 12.3 64.4 10.1
2002-11-20 08:09:38 51°20.628 2°59.587 69.5 12.3 64.2 10.1
2002-11-20 08:09:44 51°20.636 2°59.617 69.8 12.3 64.5 10.2
2002-11-20 08:09:48 51°20.642 2°59.637 70.2 12.3 64.7 10.1
2002-11-20 08:09:52 51°20.648 2°59.656 70.2 12.3 64.9 10.1
2002-11-20 08:09:58 51°20.657 2°59.685 69.8 12.3 64.6 10.1
2002-11-20 08:10:03 51°20.664 2°59.71 69.8 12.3 64.5 10.1
2002-11-20 08:10:08 51°20.672 2°59.734 69.3 12.3 63.9 10.1
2002-11-20 08:10:12 51°20.678 2°59.754 69.2 12.3 63.9 10.1
2002-11-20 08:10:19 51°20.688 2°59.788 69.5 12.3 64.3 10.1
2002-11-20 08:10:24 51°20.695 2°59.813 70 12.3 64.8 10.1
2002-11-20 08:10:28 51°20.701 2°59.833 70.2 12.3 64.9 10.1
2002-11-20 08:10:34 51°20.709 2°59.862 70.5 12.3 65.2 10.1
2002-11-20 08:10:39 51°20.717 2°59.887 70.5 12.3 65 10.1
2002-11-20 08:10:43 51°20.722 2°59.907 70 12.3 64.7 10.1
2002-11-20 08:10:48 51°20.73 2°59.932 69.7 12.4 64.3 10.1
2002-11-20 08:10:52 51°20.736 2°59.952 69.7 12.4 64.3 10.1
2002-11-20 08:10:58 51°20.745 2°59.981 69.8 12.4 64.3 10.1
2002-11-20 08:11:03 51°20.752 3°0.006 69.5 12.4 64.3 10.1
2002-11-20 08:11:08 51°20.759 3°0.031 69.8 12.4 64.5 10.1
2002-11-20 08:11:12 51°20.765 3°0.051 70.5 12.4 64.8 10.1
2002-11-20 08:11:19 51°20.774 3°0.086 72.2 12.4 66.9 10.1
2002-11-20 08:11:24 51°20.78 3°0.112 73.3 12.4 67.7 10.1
2002-11-20 08:11:28 51°20.785 3°0.132 74 12.4 69 10
2002-11-20 08:11:33 51°20.791 3°0.158 74.8 12.4 69.9 10.1
2002-11-20 08:11:38 51°20.796 3°0.184 75.3 12.4 70.5 10.1
2002-11-20 08:11:44 51°20.803 3°0.216 75.3 12.4 70.8 10.1
2002-11-20 08:11:48 51°20.808 3°0.236 75.5 12.4 71.1 10.1
2002-11-20 08:11:54 51°20.814 3°0.268 75.5 12.4 70.9 10.1
2002-11-20 08:11:58 51°20.819 3°0.289 75.7 12.4 71.4 10.1
2002-11-20 08:12:03 51°20.824 3°0.315 75.3 12.4 71.1 10.1
2002-11-20 08:12:08 51°20.83 3°0.34 75 12.4 70.7 10.1
2002-11-20 08:12:13 51°20.836 3°0.366 75 12.4 70.7 10.1
2002-11-20 08:12:18 51°20.842 3°0.393 75.2 12.5 70.3 10.1
2002-11-20 08:12:23 51°20.847 3°0.419 75 12.5 70.4 10.1
2002-11-20 08:12:28 51°20.853 3°0.444 74.7 12.5 70.3 10.1
2002-11-20 08:12:34 51°20.86 3°0.476 74.7 12.5 70.2 10.1
2002-11-20 08:12:38 51°20.865 3°0.497 74.5 12.5 69.9 10.1
2002-11-20 08:12:43 51°20.871 3°0.522 74.2 12.5 69.8 10.1
2002-11-20 08:12:48 51°20.877 3°0.548 74.5 12.5 69.6 10.1
2002-11-20 08:12:53 51°20.883 3°0.574 74.7 12.5 70 10.1
2002-11-20 08:12:59 51°20.89 3°0.606 74.3 12.5 69.9 10.1
2002-11-20 08:13:03 51°20.895 3°0.627 74.7 12.5 70.2 10.1
2002-11-20 08:13:08 51°20.901 3°0.653 74.8 12.5 70.3 10.1
2002-11-20 08:13:14 51°20.907 3°0.684 75 12.5 70.7 10.1
2002-11-20 08:13:18 51°20.912 3°0.705 75 12.5 70.7 10.1
2002-11-20 08:13:23 51°20.918 3°0.731 75.3 12.5 70.7 10.1
2002-11-20 08:13:28 51°20.924 3°0.757 75.2 12.5 70.5 10.1
2002-11-20 08:13:34 51°20.931 3°0.789 75 12.5 70.4 10
2002-11-20 08:13:39 51°20.936 3°0.815 75.2 12.5 70.6 10
2002-11-20 08:13:43 51°20.941 3°0.836 75 12.5 70.6 10
2002-11-20 08:13:48 51°20.947 3°0.862 74.8 12.5 70.2 10
2002-11-20 08:13:52 51°20.952 3°0.883 74.8 12.5 70.3 10.1
2002-11-20 08:13:58 51°20.959 3°0.914 74.7 12.6 70 10.1
2002-11-20 08:14:03 51°20.965 3°0.941 74.3 12.6 70.1 10.1
2002-11-20 08:14:08 51°20.97 3°0.967 74.7 12.6 70.5 10.1
2002-11-20 08:14:13 51°20.976 3°0.993 74.8 12.6 70.6 10.1
2002-11-20 08:14:18 51°20.982 3°1.019 74.8 12.6 70.6 10.1
2002-11-20 08:14:23 51°20.988 3°1.045 74.8 12.6 70.7 10
2002-11-20 08:14:28 51°20.994 3°1.072 75 12.6 70.6 10.1
2002-11-20 08:14:34 51°21.001 3°1.103 74.8 12.6 70.5 10.1
2002-11-20 08:14:38 51°21.005 3°1.124 74.8 12.6 70.6 10.1
2002-11-20 08:14:43 51°21.011 3°1.151 74.5 12.6 70.3 10.1
2002-11-20 08:14:48 51°21.017 3°1.177 74.3 12.6 70 10.1
2002-11-20 08:14:52 51°21.022 3°1.198 74.5 12.6 70.3 10
2002-11-20 08:14:58 51°21.029 3°1.229 74.7 12.6 70.4 10.1
2002-11-20 08:15:03 51°21.035 3°1.255 74.5 12.6 70.3 10
2002-11-20 08:15:08 51°21.04 3°1.282 75.2 12.6 70.6 10
2002-11-20 08:15:13 51°21.046 3°1.308 75.2 12.6 70.6 10.1
2002-11-20 08:15:18 51°21.052 3°1.334 75.2 12.5 70.4 10.1
2002-11-20 08:15:23 51°21.057 3°1.361 75.2 12.6 70.6 10.1
2002-11-20 08:15:28 51°21.063 3°1.386 75 12.6 70.5 10.1
2002-11-20 08:15:34 51°21.07 3°1.418 75 12.6 70.6 10
2002-11-20 08:15:38 51°21.075 3°1.439 74.8 12.6 70.3 10.1
2002-11-20 08:15:43 51°21.081 3°1.465 75.2 12.6 70.3 10.1
2002-11-20 08:15:48 51°21.087 3°1.492 74.8 12.6 70 10.1
2002-11-20 08:15:53 51°21.093 3°1.518 75 12.6 70.3 10.1
2002-11-20 08:15:59 51°21.099 3°1.55 74.8 12.6 70.2 9.9
2002-11-20 08:16:03 51°21.104 3°1.572 74.7 12.6 70.4 10.1
2002-11-20 08:16:08 51°21.11 3°1.598 74.8 12.6 70.4 10.1
2002-11-20 08:16:13 51°21.116 3°1.625 74.5 12.6 70.3 10.1
2002-11-20 08:16:19 51°21.123 3°1.656 74.3 12.6 70 10.1
2002-11-20 08:16:24 51°21.129 3°1.681 74.3 12.6 69.8 10.1
2002-11-20 08:16:28 51°21.134 3°1.702 74.5 12.6 70 10.1
2002-11-20 08:16:34 51°21.141 3°1.733 74.7 12.6 69.7 10.1
2002-11-20 08:16:38 51°21.146 3°1.754 74.8 12.6 70.1 10.1
2002-11-20 08:16:43 51°21.152 3°1.781 75 12.6 70.4 10.1
2002-11-20 08:16:48 51°21.158 3°1.807 74.7 12.6 70.3 10.1
2002-11-20 08:16:52 51°21.162 3°1.828 75 12.6 70.6 10.2
2002-11-20 08:16:59 51°21.171 3°1.865 74.8 12.6 70.2 10.2
2002-11-20 08:17:03 51°21.175 3°1.886 74.7 12.6 70.2 10.1
2002-11-20 08:17:08 51°21.181 3°1.913 74.7 12.6 70.3 10.2
2002-11-20 08:17:13 51°21.187 3°1.939 74.7 12.6 70.6 10.2
2002-11-20 08:17:19 51°21.194 3°1.971 74.8 12.6 71 10.2
2002-11-20 08:17:24 51°21.199 3°1.998 75.3 12.6 71.3 10.2
2002-11-20 08:17:28 51°21.204 3°2.019 74.8 12.6 70.7 10.2
2002-11-20 08:17:34 51°21.211 3°2.05 74.8 12.6 70.6 10.2
2002-11-20 08:17:38 51°21.216 3°2.072 74.7 12.6 70.7 10.2
2002-11-20 08:17:43 51°21.222 3°2.098 74.7 12.6 70.7 10.2
2002-11-20 08:17:48 51°21.228 3°2.124 74.3 12.6 70.1 10.2
2002-11-20 08:17:53 51°21.233 3°2.151 74.3 12.7 70.3 10.2
2002-11-20 08:17:58 51°21.24 3°2.177 74.7 12.6 70.3 10.2
2002-11-20 08:18:03 51°21.245 3°2.203 74.7 12.6 70.9 10.2
2002-11-20 08:18:08 51°21.25 3°2.228 74.8 12.6 70.7 10.2
2002-11-20 08:18:14 51°21.257 3°2.259 74.5 12.6 70.8 10.2
2002-11-20 08:18:18 51°21.262 3°2.281 74.2 12.7 70.4 10.3
2002-11-20 08:18:23 51°21.268 3°2.307 74.5 12.6 70.3 10.3
2002-11-20 08:18:28 51°21.274 3°2.333 74.5 12.6 70.3 10.3
2002-11-20 08:18:34 51°21.281 3°2.365 74.2 12.6 70 10.3
2002-11-20 08:18:39 51°21.286 3°2.392 74.5 12.6 70.8 10.2
2002-11-20 08:18:43 51°21.291 3°2.412 74.5 12.5 70.7 10.2
2002-11-20 08:18:48 51°21.297 3°2.439 75 12.5 71.1 10.2
2002-11-20 08:18:54 51°21.304 3°2.47 75 12.5 70.9 10.2
2002-11-20 08:18:59 51°21.309 3°2.496 75 12.5 70.8 10.2
2002-11-20 08:19:04 51°21.315 3°2.522 74.3 12.5 70.1 10.2
2002-11-20 08:19:08 51°21.32 3°2.542 74.2 12.5 70.1 10.2
2002-11-20 08:19:14 51°21.327 3°2.574 74.3 12.5 70.3 10.2
2002-11-20 08:19:18 51°21.331 3°2.594 74.5 12.4 70.8 10.1
2002-11-20 08:19:23 51°21.337 3°2.62 74.3 12.5 70.9 10.3
2002-11-20 08:19:28 51°21.343 3°2.647 74.7 12.5 71 10.3
2002-11-20 08:19:33 51°21.349 3°2.673 74.8 12.6 71 10.3
2002-11-20 08:19:39 51°21.355 3°2.705 74.8 12.6 71.3 10
2002-11-20 08:19:43 51°21.36 3°2.726 74.8 12.6 71.2 10.3
2002-11-20 08:19:48 51°21.365 3°2.752 75 12.6 71.4 10.2
2002-11-20 08:19:52 51°21.37 3°2.774 75 12.6 71.4 10.2
2002-11-20 08:19:58 51°21.377 3°2.805 74.5 12.6 70.8 10.2
2002-11-20 08:20:03 51°21.382 3°2.831 74.5 12.6 70.4 10.3
2002-11-20 08:20:08 51°21.388 3°2.858 74.5 12.6 70.1 10.3
2002-11-20 08:20:12 51°21.393 3°2.879 74.2 12.6 69.8 10.3
2002-11-20 08:20:19 51°21.401 3°2.916 74.8 12.6 70.7 10.3
2002-11-20 08:20:23 51°21.406 3°2.937 75 12.6 70.7 10.3
2002-11-20 08:20:28 51°21.411 3°2.963 75.2 12.6 71.1 10.3
2002-11-20 08:20:33 51°21.417 3°2.989 75.2 12.6 71.2 10.3
2002-11-20 08:20:38 51°21.423 3°3.016 75 12.7 70.7 10.3
2002-11-20 08:20:44 51°21.43 3°3.048 74.8 12.7 70.5 10.3
2002-11-20 08:20:48 51°21.434 3°3.069 75 12.6 70.7 10.3
2002-11-20 08:20:52 51°21.438 3°3.09 75.2 12.6 70.9 10.3
2002-11-20 08:20:58 51°21.445 3°3.121 74.8 12.6 70.9 10.3
2002-11-20 08:21:04 51°21.452 3°3.153 74.5 12.6 70.8 10.3
2002-11-20 08:21:08 51°21.457 3°3.174 74.3 12.5 70.4 10.3
2002-11-20 08:21:14 51°21.465 3°3.205 74.2 12.6 69.8 10.4
2002-11-20 08:21:18 51°21.469 3°3.226 74.3 12.6 69.8 10.4
2002-11-20 08:21:23 51°21.475 3°3.252 74.7 12.6 69.7 10.3
2002-11-20 08:21:28 51°21.481 3°3.279 74.7 12.6 70.2 10.4
2002-11-20 08:21:33 51°21.486 3°3.305 75.2 12.6 70.5 10.4
2002-11-20 08:21:39 51°21.493 3°3.337 75 12.6 70.8 10.4
2002-11-20 08:21:43 51°21.498 3°3.358 75 12.6 70.6 10.4
2002-11-20 08:21:48 51°21.504 3°3.384 75 12.6 70.8 10.4
2002-11-20 08:21:52 51°21.508 3°3.405 74.7 12.6 70.9 10.4
2002-11-20 08:21:59 51°21.516 3°3.442 74.8 12.6 70.5 10.4
2002-11-20 08:22:03 51°21.521 3°3.463 74.3 12.6 70.1 10.4
2002-11-20 08:22:08 51°21.527 3°3.489 74.8 12.6 70.6 10.4
2002-11-20 08:22:12 51°21.531 3°3.51 74.8 12.6 70.4 10.4
2002-11-20 08:22:18 51°21.539 3°3.542 75 12.7 70.7 10.4
2002-11-20 08:22:23 51°21.545 3°3.568 74.5 12.7 70.1 10.4
2002-11-20 08:22:28 51°21.55 3°3.594 74.7 12.6 70.3 10.4
2002-11-20 08:22:32 51°21.555 3°3.615 74.3 12.6 69.7 10.4
2002-11-20 08:22:39 51°21.564 3°3.652 74.5 12.6 70.1 10.4
2002-11-20 08:22:44 51°21.57 3°3.678 74.2 12.6 69.8 10.4
2002-11-20 08:22:48 51°21.574 3°3.699 74.7 12.5 70.6 10.4
2002-11-20 08:22:54 51°21.581 3°3.73 74.8 12.5 70.7 10.4
2002-11-20 08:22:58 51°21.586 3°3.751 74.5 12.5 70.7 10.4
2002-11-20 08:23:03 51°21.592 3°3.778 74.8 12.6 70.8 10.4
2002-11-20 08:23:08 51°21.598 3°3.804 74.8 12.6 70.7 10.5
2002-11-20 08:23:13 51°21.603 3°3.831 75 12.6 70.9 10.5
2002-11-20 08:23:18 51°21.609 3°3.857 75.2 12.6 71.3 10.5
2002-11-20 08:23:23 51°21.615 3°3.884 75 12.6 71 10.5
2002-11-20 08:23:28 51°21.621 3°3.909 72.5 12.6 68.8 10.5
2002-11-20 08:23:34 51°21.631 3°3.939 69.3 12.6 65.4 10.5
2002-11-20 08:23:38 51°21.638 3°3.959 66.5 12.6 62.1 10.5
2002-11-20 08:23:43 51°21.647 3°3.982 63.8 12.5 59.4 10.4
2002-11-20 08:23:48 51°21.657 3°4.005 62.2 12.5 56.7 10.5
2002-11-20 08:23:54 51°21.668 3°4.032 60.7 12.5 55.5 10.5
2002-11-20 08:23:59 51°21.679 3°4.054 59.5 12.5 53.6 10.5
2002-11-20 08:24:03 51°21.688 3°4.072 58.8 12.6 52.8 10.5
2002-11-20 08:24:08 51°21.698 3°4.094 58.8 12.6 52.4 10.5
2002-11-20 08:24:12 51°21.706 3°4.112 58.7 12.6 52.5 10.5
2002-11-20 08:24:18 51°21.719 3°4.139 58.3 12.6 52.4 10.6
2002-11-20 08:24:24 51°21.732 3°4.165 58.7 12.6 52.8 10.6
2002-11-20 08:24:28 51°21.741 3°4.183 58.5 12.6 52.7 10.6
2002-11-20 08:24:34 51°21.753 3°4.21 58.7 12.6 52.7 10.6
2002-11-20 08:24:38 51°21.762 3°4.228 58.8 12.7 52.5 10.6
2002-11-20 08:24:43 51°21.772 3°4.251 58.7 12.7 52.8 10.7
2002-11-20 08:24:48 51°21.783 3°4.273 58.7 12.7 53.1 10.7
2002-11-20 08:24:53 51°21.794 3°4.296 58.7 12.7 53.3 10.7
2002-11-20 08:24:59 51°21.806 3°4.323 58.8 12.7 53.3 10.7
2002-11-20 08:25:03 51°21.815 3°4.341 58.8 12.7 53.2 10.7
2002-11-20 08:25:08 51°21.825 3°4.363 58.5 12.7 53.1 10.7
2002-11-20 08:25:12 51°21.834 3°4.381 58.5 12.7 53.1 10.7
2002-11-20 08:25:18 51°21.847 3°4.408 58.5 12.7 52.8 10.8
2002-11-20 08:25:23 51°21.857 3°4.431 58.7 12.7 53 10.8
2002-11-20 08:25:28 51°21.868 3°4.453 59 12.7 53.2 10.8
2002-11-20 08:25:33 51°21.879 3°4.476 59.2 12.8 53.3 10.8
2002-11-20 08:25:38 51°21.889 3°4.499 59.8 12.8 54 10.8
2002-11-20 08:25:43 51°21.898 3°4.523 62.5 12.8 56.2 10.8
2002-11-20 08:25:48 51°21.906 3°4.548 65.7 12.8 60 10.8
2002-11-20 08:25:54 51°21.915 3°4.578 67.8 12.8 62.5 10.8
2002-11-20 08:25:58 51°21.92 3°4.599 69.7 12.7 66 10.8
2002-11-20 08:26:03 51°21.927 3°4.626 72.8 12.7 68.1 10.8
2002-11-20 08:26:08 51°21.932 3°4.653 75.5 12.7 71.9 10.9
2002-11-20 08:26:14 51°21.937 3°4.685 77.2 12.7 73.7 10.9
2002-11-20 08:26:19 51°21.942 3°4.712 78.3 12.7 75.5 10.9
2002-11-20 08:26:23 51°21.945 3°4.734 79.5 12.7 76.2 10.9
2002-11-20 08:26:28 51°21.949 3°4.761 79.8 12.7 76.9 10.9
2002-11-20 08:26:34 51°21.954 3°4.794 80.2 12.7 77.2 10.9
2002-11-20 08:26:38 51°21.957 3°4.816 80.5 12.7 77.1 10.9
2002-11-20 08:26:43 51°21.961 3°4.844 80.2 12.7 77.4 11
2002-11-20 08:26:48 51°21.965 3°4.871 80.3 12.8 77.5 10.9
2002-11-20 08:26:54 51°21.969 3°4.905 80.3 12.8 77.8 11
2002-11-20 08:26:58 51°21.972 3°4.927 80.2 12.8 77.2 11
2002-11-20 08:27:03 51°21.976 3°4.955 80.3 12.8 77.4 11
2002-11-20 08:27:08 51°21.98 3°4.982 79.7 12.8 77 11
2002-11-20 08:27:12 51°21.983 3°5.005 80.2 12.8 77.3 11
2002-11-20 08:27:19 51°21.989 3°5.043 80 12.9 76.8 11
2002-11-20 08:27:24 51°21.993 3°5.071 79.7 12.9 76.8 11
2002-11-20 08:27:28 51°21.996 3°5.094 80.2 12.9 77.1 11.1
2002-11-20 08:27:32 51°21.999 3°5.116 79.8 12.8 77 11.1
2002-11-20 08:27:38 51°22.004 3°5.148 80.2 12.8 77.2 11
2002-11-20 08:27:43 51°22.008 3°5.176 79.3 12.8 76.7 11
2002-11-20 08:27:48 51°22.012 3°5.204 79 12.8 76.3 11
2002-11-20 08:27:54 51°22.017 3°5.237 79.5 12.8 76.4 11
2002-11-20 08:27:58 51°22.02 3°5.259 80 12.8 77.1 11
2002-11-20 08:28:04 51°22.025 3°5.292 79.8 12.8 77.2 11.1
2002-11-20 08:28:08 51°22.028 3°5.315 79.8 12.8 77.2 11.1
2002-11-20 08:28:12 51°22.032 3°5.337 79.3 12.9 76.4 11.1
2002-11-20 08:28:18 51°22.037 3°5.37 78.8 12.8 76 11.1
2002-11-20 08:28:23 51°22.041 3°5.397 79.2 12.8 76 11.1
2002-11-20 08:28:28 51°22.045 3°5.425 78.8 12.8 76.1 11.1
2002-11-20 08:28:32 51°22.048 3°5.447 79.2 12.9 76.6 11.1
2002-11-20 08:28:39 51°22.054 3°5.486 79.7 12.8 76.7 11.1
2002-11-20 08:28:43 51°22.057 3°5.508 79.5 12.8 76.9 11.1
2002-11-20 08:28:48 51°22.062 3°5.535 79.2 12.8 76.7 11.1
2002-11-20 08:28:52 51°22.065 3°5.558 79 12.8 76.6 11.1
2002-11-20 08:28:58 51°22.07 3°5.591 79 12.9 76.3 11.1
2002-11-20 08:29:03 51°22.074 3°5.619 79 12.9 76.6 11.1
2002-11-20 08:29:08 51°22.079 3°5.647 79 12.9 76 11.1
2002-11-20 08:29:12 51°22.082 3°5.669 79.2 12.9 76.6 11.2
2002-11-20 08:29:18 51°22.087 3°5.702 79 12.9 76.1 11.2
2002-11-20 08:29:24 51°22.092 3°5.735 79.2 12.9 76.2 11.2
2002-11-20 08:29:28 51°22.096 3°5.757 79 12.9 75.7 11.2
2002-11-20 08:29:32 51°22.099 3°5.78 79.2 12.9 75.7 11.2
2002-11-20 08:29:38 51°22.104 3°5.813 78.8 12.9 75.6 11.2
2002-11-20 08:29:43 51°22.108 3°5.841 79.2 12.8 76 11.1
2002-11-20 08:29:48 51°22.113 3°5.868 79 12.8 75.8 11.2
2002-11-20 08:29:53 51°22.117 3°5.896 79.2 12.9 75.8 11.2
2002-11-20 08:29:58 51°22.121 3°5.924 79 12.9 75.8 11.2
2002-11-20 08:30:03 51°22.125 3°5.952 79 12.8 76.1 11.2
2002-11-20 08:30:08 51°22.13 3°5.979 79.2 12.8 76.1 11.3
2002-11-20 08:30:13 51°22.134 3°6.007 79.2 12.8 76.2 11.2
2002-11-20 08:30:18 51°22.139 3°6.035 79.3 12.9 75.5 11.2
2002-11-20 08:30:23 51°22.143 3°6.062 79.3 12.8 75.3 11.2
2002-11-20 08:30:28 51°22.148 3°6.09 79.5 12.8 75.5 11.2
2002-11-20 08:30:34 51°22.153 3°6.122 79.5 12.8 75.6 11.3
2002-11-20 08:30:38 51°22.156 3°6.144 79.3 12.8 75.7 11.3
2002-11-20 08:30:43 51°22.161 3°6.171 79 12.7 75.5 11.3
2002-11-20 08:30:48 51°22.165 3°6.198 79.3 12.7 75.2 11.2
2002-11-20 08:30:54 51°22.17 3°6.231 79.2 12.7 75.2 11.2
2002-11-20 08:30:59 51°22.175 3°6.258 79 12.7 74.8 11.3
2002-11-20 08:31:03 51°22.179 3°6.28 78.8 12.7 74.8 11.3
2002-11-20 08:31:08 51°22.183 3°6.307 78.7 12.7 74.6 11.3
2002-11-20 08:31:12 51°22.186 3°6.329 79.2 12.7 75.1 11.4
2002-11-20 08:31:19 51°22.193 3°6.367 78.8 12.7 75.1 11.4
2002-11-20 08:31:24 51°22.197 3°6.395 79.5 12.8 76.2 11.4
2002-11-20 08:31:28 51°22.201 3°6.416 78.5 12.8 75.1 11.4
2002-11-20 08:31:34 51°22.206 3°6.449 79.3 12.8 76.1 11.4
2002-11-20 08:31:38 51°22.21 3°6.471 78.7 12.8 74.9 11.4
2002-11-20 08:31:43 51°22.214 3°6.499 79.2 12.8 75.8 11.4
2002-11-20 08:31:48 51°22.219 3°6.526 78.5 12.8 75.1 11.4
2002-11-20 08:31:54 51°22.223 3°6.559 79 12.8 75.9 11.5
2002-11-20 08:31:59 51°22.228 3°6.586 78.5 12.8 75.4 11.5
2002-11-20 08:32:03 51°22.232 3°6.608 78.2 12.8 75.5 11.5
2002-11-20 08:32:08 51°22.236 3°6.635 78.7 12.7 75.5 11.5
2002-11-20 08:32:13 51°22.241 3°6.663 78.7 12.7 75.8 11.5
2002-11-20 08:32:19 51°22.245 3°6.696 78.8 12.7 76.3 11.6
2002-11-20 08:32:24 51°22.25 3°6.723 79 12.7 76.3 11.5
2002-11-20 08:32:28 51°22.254 3°6.745 79 12.7 76 11.5
2002-11-20 08:32:34 51°22.259 3°6.777 78.5 12.7 75.4 11.5
2002-11-20 08:32:39 51°22.264 3°6.804 78.5 12.7 75.1 11.6
2002-11-20 08:32:43 51°22.267 3°6.826 78.5 12.6 75 11.6
2002-11-20 08:32:48 51°22.272 3°6.852 78.3 12.6 75 11.6
2002-11-20 08:32:52 51°22.275 3°6.874 78.7 12.6 75.1 11.5
2002-11-20 08:32:59 51°22.281 3°6.912 79.2 12.6 75.5 11.5
2002-11-20 08:33:03 51°22.285 3°6.934 79 12.7 75.5 11.5
2002-11-20 08:33:08 51°22.289 3°6.961 79 12.7 75.4 11.3
2002-11-20 08:33:12 51°22.293 3°6.982 79 12.7 75.4 11.6
2002-11-20 08:33:19 51°22.299 3°7.021 78.5 12.7 74.9 11.7
2002-11-20 08:33:23 51°22.302 3°7.042 79 12.7 75.4 11.6
2002-11-20 08:33:28 51°22.307 3°7.069 79 12.7 75.2 11.4
2002-11-20 08:33:34 51°22.313 3°7.102 78.5 12.7 75.3 11.5
2002-11-20 08:33:38 51°22.316 3°7.124 79 12.7 75.2 11.5
2002-11-20 08:33:43 51°22.32 3°7.151 79 12.7 75.5 11.5
2002-11-20 08:33:48 51°22.325 3°7.178 78.8 12.7 75.8 11.5
2002-11-20 08:33:53 51°22.329 3°7.206 78.8 12.7 75.6 11.5
2002-11-20 08:33:58 51°22.334 3°7.233 78.7 12.7 75.1 11.4
2002-11-20 08:34:03 51°22.338 3°7.26 78 12.7 74.8 11.6
2002-11-20 08:34:08 51°22.343 3°7.287 77.3 12.7 74 11.6
2002-11-20 08:34:14 51°22.349 3°7.319 77 12.7 73.9 11.5
2002-11-20 08:34:18 51°22.354 3°7.34 76 12.7 72.6 11.5
2002-11-20 08:34:23 51°22.359 3°7.367 76.2 12.7 72.6 11.6
2002-11-20 08:34:28 51°22.365 3°7.394 75.8 12.6 72 11.5
2002-11-20 08:34:34 51°22.371 3°7.426 76.2 12.6 72.5 11.6
2002-11-20 08:34:39 51°22.377 3°7.453 76.2 12.7 72.2 11.6
2002-11-20 08:34:43 51°22.381 3°7.474 75.8 12.7 72 11.6
2002-11-20 08:34:48 51°22.386 3°7.501 75.7 12.6 71.9 11.6
2002-11-20 08:34:54 51°22.393 3°7.533 75.7 12.6 72.3 11.7
2002-11-20 08:34:59 51°22.398 3°7.56 76 12.7 72.3 11.6
2002-11-20 08:35:04 51°22.404 3°7.586 76 12.7 72.2 11.7
2002-11-20 08:35:08 51°22.408 3°7.608 76 12.8 72.3 11.6
2002-11-20 08:35:12 51°22.412 3°7.63 75.3 12.8 71.7 11.8
2002-11-20 08:35:19 51°22.42 3°7.667 75.7 12.8 71.8 11.7
2002-11-20 08:35:23 51°22.425 3°7.689 75.2 12.8 71.4 11.7
2002-11-20 08:35:28 51°22.43 3°7.715 75.5 12.8 72 11.8
2002-11-20 08:35:34 51°22.436 3°7.748 75.5 12.8 72 11.8
2002-11-20 08:35:39 51°22.441 3°7.775 76 12.8 72.7 11.7
2002-11-20 08:35:44 51°22.447 3°7.802 75.8 12.8 72.7 11.8
2002-11-20 08:35:48 51°22.451 3°7.823 75.5 12.8 72.6 11.9
2002-11-20 08:35:54 51°22.458 3°7.856 75.3 12.8 72.4 11.9
2002-11-20 08:35:58 51°22.462 3°7.877 75.2 12.8 72.3 11.9
2002-11-20 08:36:03 51°22.467 3°7.904 75.5 12.8 72.5 11.9
2002-11-20 08:36:08 51°22.473 3°7.931 75.3 12.8 72.3 11.9
2002-11-20 08:36:14 51°22.479 3°7.964 75.7 12.8 72.6 11.9
2002-11-20 08:36:19 51°22.484 3°7.991 75.7 12.8 72.5 11.9
2002-11-20 08:36:23 51°22.489 3°8.013 75.3 12.8 72.4 11.9
2002-11-20 08:36:28 51°22.494 3°8.039 75 12.8 72.1 11.8
2002-11-20 08:36:32 51°22.499 3°8.061 75.3 12.8 72 11.9
2002-11-20 08:36:38 51°22.505 3°8.094 75.3 12.8 72.5 11.9
2002-11-20 08:36:43 51°22.51 3°8.121 75.7 12.8 72.9 11.9
2002-11-20 08:36:48 51°22.515 3°8.148 76 12.8 72.9 11.9
2002-11-20 08:36:53 51°22.521 3°8.175 75.8 12.8 73 11.9
2002-11-20 08:36:58 51°22.526 3°8.202 75.8 12.8 72.8 11.9
2002-11-20 08:37:03 51°22.531 3°8.229 75.7 12.8 72.6 11.9
2002-11-20 08:37:08 51°22.536 3°8.256 75.7 12.8 72.8 11.9
2002-11-20 08:37:14 51°22.543 3°8.289 75.3 12.8 72.4 11.9
2002-11-20 08:37:18 51°22.547 3°8.311 75.3 12.8 72.5 12
2002-11-20 08:37:23 51°22.552 3°8.338 75.3 12.8 72.4 11.9
2002-11-20 08:37:28 51°22.558 3°8.365 75.5 12.9 72.3 11.9
2002-11-20 08:37:34 51°22.564 3°8.397 75.2 12.9 72 12
2002-11-20 08:37:39 51°22.569 3°8.425 75.5 12.9 72.6 11.9
2002-11-20 08:37:43 51°22.574 3°8.447 75.3 12.9 72.3 11.9
2002-11-20 08:37:48 51°22.579 3°8.474 75.7 12.9 72.6 12
2002-11-20 08:37:52 51°22.584 3°8.496 75.5 13 72.2 12
2002-11-20 08:37:59 51°22.591 3°8.534 75.7 12.9 72.8 12
2002-11-20 08:38:04 51°22.596 3°8.562 75.3 12.9 72.5 12
2002-11-20 08:38:08 51°22.6 3°8.584 75.5 12.9 72.7 12
2002-11-20 08:38:14 51°22.607 3°8.616 75.5 12.9 72.6 12
2002-11-20 08:38:19 51°22.612 3°8.644 75.7 12.9 72.9 12.1
2002-11-20 08:38:24 51°22.617 3°8.671 76 12.9 73.3 12.1
2002-11-20 08:38:28 51°22.622 3°8.693 76 13 73.2 12.1
2002-11-20 08:38:32 51°22.626 3°8.715 76.2 13 73.5 12.1
2002-11-20 08:38:38 51°22.632 3°8.748 75.7 13 72.9 12.2
2002-11-20 08:38:43 51°22.638 3°8.776 75.5 13 72.6 12.1
2002-11-20 08:38:48 51°22.643 3°8.803 75.7 13 72.3 12.1
2002-11-20 08:38:53 51°22.648 3°8.831 75.8 13 72.4 12.1
2002-11-20 08:38:58 51°22.653 3°8.858 75.8 13 72.8 12.1
2002-11-20 08:39:03 51°22.659 3°8.885 76 12.9 72.8 12.1
2002-11-20 08:39:08 51°22.664 3°8.913 76.2 13 72.9 12.1
2002-11-20 08:39:12 51°22.668 3°8.935 76.5 13 73.2 12.2
2002-11-20 08:39:19 51°22.675 3°8.973 76.8 12.9 73.6 12.2
2002-11-20 08:39:24 51°22.68 3°9 76.8 12.7 74 12.1
2002-11-20 08:39:28 51°22.684 3°9.02 75.8 12.1 73.2 12.1
2002-11-20 08:39:32 51°22.687 3°9.039 78.5 11.6 73.9 12.1
2002-11-20 08:39:39 51°22.691 3°9.07 80.7 10.6 76.8 12.2
2002-11-20 08:39:44 51°22.693 3°9.09 82.7 9.8 79.1 12.3
2002-11-20 08:39:48 51°22.695 3°9.106 84.5 9 81 12.3
2002-11-20 08:39:52 51°22.696 3°9.12 86.5 8.4 83.1 12.3
2002-11-20 08:39:59 51°22.697 3°9.144 88.5 7.8 85.4 12.3
2002-11-20 08:40:03 51°22.697 3°9.156 90.2 7.3 87.1 12.3
2002-11-20 08:40:08 51°22.697 3°9.17 92 6.7 90 12.3
2002-11-20 08:40:12 51°22.697 3°9.181 94.3 6.3 91.4 12.3
2002-11-20 08:40:18 51°22.695 3°9.196 96 5.8 94.7 12.4
2002-11-20 08:40:23 51°22.695 3°9.208 97.5 5.5 96.7 12.4
2002-11-20 08:40:28 51°22.693 3°9.219 98.7 5.2 99.1 12.5
2002-11-20 08:40:33 51°22.692 3°9.229 99.5 5 100.3 12.6
2002-11-20 08:40:38 51°22.69 3°9.239 100.3 4.6 102.1 12.7
2002-11-20 08:40:43 51°22.689 3°9.248 101 4.3 102.4 12.6
2002-11-20 08:40:48 51°22.688 3°9.257 101.7 4 103.4 12.7
2002-11-20 08:40:54 51°22.686 3°9.267 101.8 3.9 103.8 12.7
2002-11-20 08:40:58 51°22.685 3°9.273 102 3.7 105.8 12.6
2002-11-20 08:41:03 51°22.684 3°9.28 101.8 3.5 105.4 12.7
2002-11-20 08:41:08 51°22.683 3°9.286 101.5 3.2 105.6 12.6
2002-11-20 08:41:14 51°22.681 3°9.294 101 3.1 105.5 12.6
2002-11-20 08:41:19 51°22.68 3°9.3 100.3 2.9 105.7 12.4
2002-11-20 08:41:23 51°22.679 3°9.304 99.8 2.7 105.3 12.4
2002-11-20 08:41:28 51°22.678 3°9.309 99 2.6 103.9 12.4
2002-11-20 08:41:32 51°22.678 3°9.314 97.8 2.5 101.8 12.4
2002-11-20 08:41:38 51°22.677 3°9.32 96.8 2.3 99.5 12.5
2002-11-20 08:41:44 51°22.677 3°9.325 95.8 2.2 98.7 12.2
2002-11-20 08:41:48 51°22.676 3°9.329 94.5 2 98.5 12.4
2002-11-20 08:41:54 51°22.676 3°9.333 93.2 1.9 97.8 12.4
2002-11-20 08:41:58 51°22.676 3°9.336 91.8 1.6 97.4 12.4
2002-11-20 08:42:03 51°22.675 3°9.339 90.2 1.5 96.9 12.3
2002-11-20 08:42:08 51°22.675 3°9.342 88.7 1.3 95.7 12.2
2002-11-20 08:42:14 51°22.675 3°9.346 87.3 1.3 93.9 12.3
2002-11-20 08:42:19 51°22.675 3°9.349 86 1.4 89.5 12.4
2002-11-20 08:42:23 51°22.675 3°9.351 84.5 1.3 87.5 12.5
2002-11-20 08:42:28 51°22.675 3°9.354 83 1.2 88.1 12.5
2002-11-20 08:42:32 51°22.675 3°9.355 81.5 1.2 86.6 12.6
2002-11-20 08:42:39 51°22.675 3°9.359 80.3 1.1 83.5 12.6
2002-11-20 08:42:43 51°22.675 3°9.361 79.3 1.1 83.5 12.6
2002-11-20 08:42:48 51°22.675 3°9.363 78.7 1 79.8 12.6
2002-11-20 08:42:53 51°22.675 3°9.365 78 1 78.7 12.7
2002-11-20 08:42:58 51°22.676 3°9.367 77.8 1 79.3 12.6
2002-11-20 08:43:03 51°22.676 3°9.369 77.5 0.9 78.5 12.7
2002-11-20 08:43:08 51°22.677 3°9.371 77.2 0.9 75.9 12.7
2002-11-20 08:43:14 51°22.677 3°9.373 76.8 0.9 75 12.7
2002-11-20 08:43:18 51°22.677 3°9.375 76.8 0.8 77.1 12.7
2002-11-20 08:43:23 51°22.677 3°9.376 76.8 0.8 76.1 12.7
2002-11-20 08:43:28 51°22.677 3°9.378 76.5 0.8 75.1 12.7
2002-11-20 08:43:34 51°22.678 3°9.38 76.2 0.8 74.5 12.7
2002-11-20 08:43:39 51°22.678 3°9.381 75.8 0.7 73.7 12.7
2002-11-20 08:43:43 51°22.678 3°9.382 75.5 0.7 69.9 12.7
2002-11-20 08:43:48 51°22.679 3°9.383 75.2 0.6 64.5 12.7
2002-11-20 08:43:52 51°22.679 3°9.384 74.7 0.6 66.5 12.7
2002-11-20 08:43:59 51°22.679 3°9.386 74.2 0.6 69.7 12.7
2002-11-20 08:44:04 51°22.679 3°9.387 73.8 0.6 67 12.8
2002-11-20 08:44:08 51°22.68 3°9.388 73.3 0.5 62.2 12.8
2002-11-20 08:44:14 51°22.68 3°9.389 72.8 0.5 59.2 12.7
2002-11-20 08:44:19 51°22.681 3°9.39 72.3 0.5 55.4 12.7
2002-11-20 08:44:24 51°22.681 3°9.391 71.5 0.5 51 12.8
2002-11-20 08:44:28 51°22.681 3°9.391 70.7 0.5 43.6 12.7
2002-11-20 08:44:32 51°22.682 3°9.392 69.8 0.5 41.3 12.8
2002-11-20 08:44:39 51°22.683 3°9.392 68.8 0.5 29.3 12.8
2002-11-20 08:44:43 51°22.683 3°9.393 67.8 0.5 32.4 12.8
2002-11-20 08:44:48 51°22.683 3°9.393 67 0.4 30.5 12.8
2002-11-20 08:44:54 51°22.685 3°9.394 66.2 0.4 23.6 12.8
2002-11-20 08:44:59 51°22.685 3°9.395 65.5 0.5 23.8 12.8
2002-11-20 08:45:04 51°22.686 3°9.395 64.8 0.5 24.3 12.8
2002-11-20 08:45:08 51°22.686 3°9.395 64.5 0.4 25 12.8
2002-11-20 08:45:14 51°22.687 3°9.396 64.2 0.4 21.5 12.8
2002-11-20 08:45:18 51°22.687 3°9.396 63.8 0.4 15.5 12.8
2002-11-20 08:45:23 51°22.688 3°9.396 63.7 0.4 11.9 12.8
2002-11-20 08:45:28 51°22.689 3°9.397 63.8 0.4 15.4 12.8
2002-11-20 08:45:34 51°22.689 3°9.397 63.8 0.4 14.9 12.8
2002-11-20 08:45:39 51°22.69 3°9.397 63.8 0.5 20.5 12.8
2002-11-20 08:45:43 51°22.691 3°9.398 64 0.6 25.8 12.8
2002-11-20 08:45:48 51°22.692 3°9.399 64.3 0.7 28.5 12.7
2002-11-20 08:45:53 51°22.693 3°9.4 63.8 0.7 26.6 12.7
2002-11-20 08:45:59 51°22.694 3°9.401 63.8 0.8 24.6 12.8
2002-11-20 08:46:04 51°22.695 3°9.401 63.8 0.7 26.4 12.8
2002-11-20 08:46:08 51°22.695 3°9.402 63.8 0.7 26.8 12.8
2002-11-20 08:46:14 51°22.697 3°9.403 64 0.7 29.3 12.8
2002-11-20 08:46:19 51°22.697 3°9.404 65.2 0.8 38.1 12.8
2002-11-20 08:46:23 51°22.698 3°9.406 68 0.9 46.1 12.8
2002-11-20 08:46:28 51°22.699 3°9.408 71.2 1.1 56.4 12.8
2002-11-20 08:46:32 51°22.699 3°9.41 74.8 1.3 61.1 12.8
2002-11-20 08:46:38 51°22.7 3°9.413 79 1.3 66 12.8
2002-11-20 08:46:44 51°22.7 3°9.416 81.8 1.2 71.2 12.8
2002-11-20 08:46:48 51°22.701 3°9.417 83.5 1 74.9 12.8
2002-11-20 08:46:52 51°22.701 3°9.419 84.3 0.8 77.6 12.8
2002-11-20 08:46:58 51°22.701 3°9.42 85.3 0.6 75.6 12.7
2002-11-20 08:47:03 51°22.701 3°9.42 86.5 0.3 77 12.8
2002-11-20 08:47:08 51°22.701 3°9.419 87.5 0.2 258.8 12.7
2002-11-20 08:47:12 51°22.701 3°9.418 88.2 0.5 263.6 12.7
2002-11-20 08:47:18 51°22.701 3°9.416 88.2 0.7 267.6 12.7
2002-11-20 08:47:23 51°22.701 3°9.415 87.8 0.7 268.6 12.8
2002-11-20 08:47:28 51°22.701 3°9.414 87.3 0.5 270.6 12.8
2002-11-20 08:47:33 51°22.701 3°9.414 87.8 0.2 292.3 12.8
2002-11-20 08:47:38 51°22.701 3°9.416 90.7 0.5 96 12.7
2002-11-20 08:47:43 51°22.7 3°9.418 94.8 1 97.2 12.7